sensor_id;sensor_type;location;lat;lon;timestamp;temperature;humidity
4826;DHT22;2427;50.934;6.776;2022-12-20T00:01:33;10.80;99.90
4826;DHT22;2427;50.934;6.776;2022-12-20T00:04:01;10.90;94.10
4826;DHT22;2427;50.934;6.776;2022-12-20T00:06:28;10.80;99.90
4826;DHT22;2427;50.934;6.776;2022-12-20T00:08:59;10.80;99.90
4826;DHT22;2427;50.934;6.776;2022-12-20T00:11:25;10.80;99.90
4826;DHT22;2427;50.934;6.776;2022-12-20T00:13:51;10.80;99.90
4826;DHT22;2427;50.934;6.776;2022-12-20T00:16:20;10.80;99.90
4826;DHT22;2427;50.934;6.776;2022-12-20T00:18:46;10.90;92.20
4826;DHT22;2427;50.934;6.776;2022-12-20T00:21:13;10.90;99.90
4826;DHT22;2427;50.934;6.776;2022-12-20T00:23:39;11.00;99.90
4826;DHT22;2427;50.934;6.776;2022-12-20T00:26:16;11.00;99.90
4826;DHT22;2427;50.934;6.776;2022-12-20T00:28:42;10.90;99.90
4826;DHT22;2427;50.934;6.776;2022-12-20T00:31:10;10.80;1.00
4826;DHT22;2427;50.934;6.776;2022-12-20T00:33:37;10.80;1.00
4826;DHT22;2427;50.934;6.776;2022-12-20T00:36:04;10.90;1.00
4826;DHT22;2427;50.934;6.776;2022-12-20T00:38:31;10.90;1.00
4826;DHT22;2427;50.934;6.776;2022-12-20T00:41:08;10.90;1.00
4826;DHT22;2427;50.934;6.776;2022-12-20T00:43:34;10.90;1.00
4826;DHT22;2427;50.934;6.776;2022-12-20T00:46:01;10.90;1.00
4826;DHT22;2427;50.934;6.776;2022-12-20T00:48:27;10.80;1.00
4826;DHT22;2427;50.934;6.776;2022-12-20T00:51:00;10.80;1.00
4826;DHT22;2427;50.934;6.776;2022-12-20T00:53:26;10.80;1.00
4826;DHT22;2427;50.934;6.776;2022-12-20T00:55:52;10.80;1.00
4826;DHT22;2427;50.934;6.776;2022-12-20T00:58:18;10.80;99.90
4826;DHT22;2427;50.934;6.776;2022-12-20T01:00:43;10.90;99.90
4826;DHT22;2427;50.934;6.776;2022-12-20T01:03:09;10.90;99.90
4826;DHT22;2427;50.934;6.776;2022-12-20T01:05:35;10.90;99.90
4826;DHT22;2427;50.934;6.776;2022-12-20T01:08:00;10.90;99.90
4826;DHT22;2427;50.934;6.776;2022-12-20T01:10:26;10.90;99.90
4826;DHT22;2427;50.934;6.776;2022-12-20T01:12:52;11.00;99.90
4826;DHT22;2427;50.934;6.776;2022-12-20T01:15:18;11.00;99.90
4826;DHT22;2427;50.934;6.776;2022-12-20T01:17:45;11.00;99.90
4826;DHT22;2427;50.934;6.776;2022-12-20T01:20:11;11.00;99.90
4826;DHT22;2427;50.934;6.776;2022-12-20T01:22:37;11.00;99.90
4826;DHT22;2427;50.934;6.776;2022-12-20T01:25:03;11.00;99.90
4826;DHT22;2427;50.934;6.776;2022-12-20T01:27:28;11.00;95.60
4826;DHT22;2427;50.934;6.776;2022-12-20T01:29:54;11.00;99.90
4826;DHT22;2427;50.934;6.776;2022-12-20T01:32:20;11.00;99.90
4826;DHT22;2427;50.934;6.776;2022-12-20T01:34:45;11.00;99.90
4826;DHT22;2427;50.934;6.776;2022-12-20T01:37:11;10.90;99.90
4826;DHT22;2427;50.934;6.776;2022-12-20T01:39:37;10.90;99.90
4826;DHT22;2427;50.934;6.776;2022-12-20T01:42:03;10.80;99.90
4826;DHT22;2427;50.934;6.776;2022-12-20T01:46:55;10.80;99.90
4826;DHT22;2427;50.934;6.776;2022-12-20T01:49:37;10.80;99.90
4826;DHT22;2427;50.934;6.776;2022-12-20T01:52:06;10.80;99.90
4826;DHT22;2427;50.934;6.776;2022-12-20T01:54:49;10.70;99.90
4826;DHT22;2427;50.934;6.776;2022-12-20T01:57:21;10.80;99.90
4826;DHT22;2427;50.934;6.776;2022-12-20T01:59:48;10.80;99.90
4826;DHT22;2427;50.934;6.776;2022-12-20T02:12:43;10.60;1.00
4826;DHT22;2427;50.934;6.776;2022-12-20T02:15:38;10.50;1.00
4826;DHT22;2427;50.934;6.776;2022-12-20T02:30:08;10.20;1.00
4826;DHT22;2427;50.934;6.776;2022-12-20T02:33:04;10.10;1.00
4826;DHT22;2427;50.934;6.776;2022-12-20T02:35:35;10.10;1.00
4826;DHT22;2427;50.934;6.776;2022-12-20T02:38:22;10.10;1.00
4826;DHT22;2427;50.934;6.776;2022-12-20T02:40:50;10.10;1.00
4826;DHT22;2427;50.934;6.776;2022-12-20T02:43:20;10.00;1.00
4826;DHT22;2427;50.934;6.776;2022-12-20T02:46:06;10.00;1.00
4826;DHT22;2427;50.934;6.776;2022-12-20T02:48:34;10.00;1.00
4826;DHT22;2427;50.934;6.776;2022-12-20T02:51:02;10.00;1.00
4826;DHT22;2427;50.934;6.776;2022-12-20T02:53:29;10.00;1.00
4826;DHT22;2427;50.934;6.776;2022-12-20T02:58:54;10.00;1.00
4826;DHT22;2427;50.934;6.776;2022-12-20T03:01:29;10.00;1.00
4826;DHT22;2427;50.934;6.776;2022-12-20T03:03:57;10.10;99.90
4826;DHT22;2427;50.934;6.776;2022-12-20T03:06:23;10.10;99.90
4826;DHT22;2427;50.934;6.776;2022-12-20T03:08:49;10.10;99.90
4826;DHT22;2427;50.934;6.776;2022-12-20T03:11:14;10.10;99.90
4826;DHT22;2427;50.934;6.776;2022-12-20T03:13:40;10.10;99.90
4826;DHT22;2427;50.934;6.776;2022-12-20T03:16:06;10.00;99.90
4826;DHT22;2427;50.934;6.776;2022-12-20T03:18:32;10.10;1.00
4826;DHT22;2427;50.934;6.776;2022-12-20T03:20:58;10.00;1.00
4826;DHT22;2427;50.934;6.776;2022-12-20T03:23:24;10.00;1.00
4826;DHT22;2427;50.934;6.776;2022-12-20T03:25:49;10.00;1.00
4826;DHT22;2427;50.934;6.776;2022-12-20T03:28:15;10.00;1.00
4826;DHT22;2427;50.934;6.776;2022-12-20T03:30:41;10.10;1.00
4826;DHT22;2427;50.934;6.776;2022-12-20T03:33:06;10.10;1.00
4826;DHT22;2427;50.934;6.776;2022-12-20T03:35:32;10.10;99.90
4826;DHT22;2427;50.934;6.776;2022-12-20T03:37:57;10.10;1.00
4826;DHT22;2427;50.934;6.776;2022-12-20T03:40:23;10.10;1.00
4826;DHT22;2427;50.934;6.776;2022-12-20T03:42:49;10.00;1.00
4826;DHT22;2427;50.934;6.776;2022-12-20T03:45:14;9.90;1.00
4826;DHT22;2427;50.934;6.776;2022-12-20T03:47:40;9.90;1.00
4826;DHT22;2427;50.934;6.776;2022-12-20T03:50:06;9.70;1.00
4826;DHT22;2427;50.934;6.776;2022-12-20T03:52:32;9.70;99.90
4826;DHT22;2427;50.934;6.776;2022-12-20T03:54:57;9.60;99.90
4826;DHT22;2427;50.934;6.776;2022-12-20T03:57:23;9.60;99.90
4826;DHT22;2427;50.934;6.776;2022-12-20T03:59:49;9.50;99.90
4826;DHT22;2427;50.934;6.776;2022-12-20T04:02:14;9.50;99.90
4826;DHT22;2427;50.934;6.776;2022-12-20T04:04:40;9.40;99.90
4826;DHT22;2427;50.934;6.776;2022-12-20T04:07:06;9.40;99.90
4826;DHT22;2427;50.934;6.776;2022-12-20T04:09:31;9.40;99.90
4826;DHT22;2427;50.934;6.776;2022-12-20T04:11:57;9.30;1.00
4826;DHT22;2427;50.934;6.776;2022-12-20T04:14:23;9.30;1.00
4826;DHT22;2427;50.934;6.776;2022-12-20T04:16:48;9.20;1.00
4826;DHT22;2427;50.934;6.776;2022-12-20T04:19:14;9.20;1.00
4826;DHT22;2427;50.934;6.776;2022-12-20T04:21:39;9.20;1.00
4826;DHT22;2427;50.934;6.776;2022-12-20T04:24:06;9.20;1.00
4826;DHT22;2427;50.934;6.776;2022-12-20T04:26:32;9.10;1.00
4826;DHT22;2427;50.934;6.776;2022-12-20T04:28:57;9.10;1.00
4826;DHT22;2427;50.934;6.776;2022-12-20T04:31:23;9.00;1.00
4826;DHT22;2427;50.934;6.776;2022-12-20T04:33:49;9.00;1.00
4826;DHT22;2427;50.934;6.776;2022-12-20T04:36:15;9.00;1.00
4826;DHT22;2427;50.934;6.776;2022-12-20T04:38:40;8.90;1.00
4826;DHT22;2427;50.934;6.776;2022-12-20T04:41:06;8.90;1.00
4826;DHT22;2427;50.934;6.776;2022-12-20T04:43:32;8.80;1.00
4826;DHT22;2427;50.934;6.776;2022-12-20T04:45:57;8.80;1.00
4826;DHT22;2427;50.934;6.776;2022-12-20T04:48:25;8.80;1.00
4826;DHT22;2427;50.934;6.776;2022-12-20T04:50:54;8.70;1.00
4826;DHT22;2427;50.934;6.776;2022-12-20T04:53:20;8.70;1.00
4826;DHT22;2427;50.934;6.776;2022-12-20T04:56:05;8.70;1.00
4826;DHT22;2427;50.934;6.776;2022-12-20T04:58:31;8.70;1.00
4826;DHT22;2427;50.934;6.776;2022-12-20T05:00:56;8.70;1.00
4826;DHT22;2427;50.934;6.776;2022-12-20T05:03:24;8.70;1.00
4826;DHT22;2427;50.934;6.776;2022-12-20T05:05:50;8.70;4.60
4826;DHT22;2427;50.934;6.776;2022-12-20T05:08:15;8.70;4.80
4826;DHT22;2427;50.934;6.776;2022-12-20T05:10:41;8.80;5.70
4826;DHT22;2427;50.934;6.776;2022-12-20T05:13:07;8.70;4.60
4826;DHT22;2427;50.934;6.776;2022-12-20T05:15:33;8.70;1.00
4826;DHT22;2427;50.934;6.776;2022-12-20T05:17:58;8.60;2.90
4826;DHT22;2427;50.934;6.776;2022-12-20T05:20:29;8.60;11.50
4826;DHT22;2427;50.934;6.776;2022-12-20T05:22:55;8.60;19.00
4826;DHT22;2427;50.934;6.776;2022-12-20T05:25:45;8.60;20.60
4826;DHT22;2427;50.934;6.776;2022-12-20T05:28:35;8.60;26.10
4826;DHT22;2427;50.934;6.776;2022-12-20T05:31:01;8.60;28.50
4826;DHT22;2427;50.934;6.776;2022-12-20T05:33:27;8.60;34.10
4826;DHT22;2427;50.934;6.776;2022-12-20T05:35:53;8.60;37.40
4826;DHT22;2427;50.934;6.776;2022-12-20T05:38:19;8.70;37.70
4826;DHT22;2427;50.934;6.776;2022-12-20T05:40:47;8.70;29.10
4826;DHT22;2427;50.934;6.776;2022-12-20T05:43:14;8.70;22.70
4826;DHT22;2427;50.934;6.776;2022-12-20T05:45:43;8.70;24.10
4826;DHT22;2427;50.934;6.776;2022-12-20T05:48:09;8.70;24.90
4826;DHT22;2427;50.934;6.776;2022-12-20T05:50:34;8.70;23.70
4826;DHT22;2427;50.934;6.776;2022-12-20T05:53:00;8.70;12.20
4826;DHT22;2427;50.934;6.776;2022-12-20T05:55:25;8.70;8.30
4826;DHT22;2427;50.934;6.776;2022-12-20T05:57:51;8.70;10.40
4826;DHT22;2427;50.934;6.776;2022-12-20T06:00:17;8.70;15.30
4826;DHT22;2427;50.934;6.776;2022-12-20T06:02:42;8.70;15.70
4826;DHT22;2427;50.934;6.776;2022-12-20T06:05:08;8.70;12.80
4826;DHT22;2427;50.934;6.776;2022-12-20T06:07:34;8.70;9.00
4826;DHT22;2427;50.934;6.776;2022-12-20T06:09:59;8.70;3.90
4826;DHT22;2427;50.934;6.776;2022-12-20T06:12:25;8.70;8.40
4826;DHT22;2427;50.934;6.776;2022-12-20T06:14:50;8.80;11.20
4826;DHT22;2427;50.934;6.776;2022-12-20T06:17:16;8.80;12.50
4826;DHT22;2427;50.934;6.776;2022-12-20T06:19:42;8.80;4.60
4826;DHT22;2427;50.934;6.776;2022-12-20T06:22:08;8.80;1.00
4826;DHT22;2427;50.934;6.776;2022-12-20T06:24:34;8.80;1.00
4826;DHT22;2427;50.934;6.776;2022-12-20T06:27:01;8.90;1.00
4826;DHT22;2427;50.934;6.776;2022-12-20T06:29:27;8.90;1.00
4826;DHT22;2427;50.934;6.776;2022-12-20T06:31:53;8.90;1.00
4826;DHT22;2427;50.934;6.776;2022-12-20T06:34:18;9.00;1.00
4826;DHT22;2427;50.934;6.776;2022-12-20T06:36:44;9.00;1.00
4826;DHT22;2427;50.934;6.776;2022-12-20T06:39:10;9.10;1.00
4826;DHT22;2427;50.934;6.776;2022-12-20T06:41:36;9.20;1.00
4826;DHT22;2427;50.934;6.776;2022-12-20T06:44:01;9.20;1.00
4826;DHT22;2427;50.934;6.776;2022-12-20T06:46:27;9.30;1.00
4826;DHT22;2427;50.934;6.776;2022-12-20T06:48:55;9.30;1.00
4826;DHT22;2427;50.934;6.776;2022-12-20T06:51:20;9.30;1.00
4826;DHT22;2427;50.934;6.776;2022-12-20T06:53:46;9.30;1.00
4826;DHT22;2427;50.934;6.776;2022-12-20T06:56:11;9.30;1.00
4826;DHT22;2427;50.934;6.776;2022-12-20T06:58:37;9.40;1.00
4826;DHT22;2427;50.934;6.776;2022-12-20T07:01:02;9.30;1.00
4826;DHT22;2427;50.934;6.776;2022-12-20T07:03:28;9.40;1.00
4826;DHT22;2427;50.934;6.776;2022-12-20T07:05:54;9.40;1.00
4826;DHT22;2427;50.934;6.776;2022-12-20T07:08:20;9.40;1.00
4826;DHT22;2427;50.934;6.776;2022-12-20T07:10:46;9.40;1.00
4826;DHT22;2427;50.934;6.776;2022-12-20T07:13:12;9.40;1.00
4826;DHT22;2427;50.934;6.776;2022-12-20T07:15:37;9.40;1.00
4826;DHT22;2427;50.934;6.776;2022-12-20T07:18:03;9.30;1.00
4826;DHT22;2427;50.934;6.776;2022-12-20T07:20:29;9.30;1.00
4826;DHT22;2427;50.934;6.776;2022-12-20T07:22:55;9.30;1.00
4826;DHT22;2427;50.934;6.776;2022-12-20T07:25:21;9.30;1.00
4826;DHT22;2427;50.934;6.776;2022-12-20T07:27:49;9.30;1.00
4826;DHT22;2427;50.934;6.776;2022-12-20T07:30:16;9.30;1.00
4826;DHT22;2427;50.934;6.776;2022-12-20T07:32:42;9.20;1.00
4826;DHT22;2427;50.934;6.776;2022-12-20T07:35:09;9.10;1.00
4826;DHT22;2427;50.934;6.776;2022-12-20T07:37:35;9.00;1.00
4826;DHT22;2427;50.934;6.776;2022-12-20T07:40:01;8.90;1.00
4826;DHT22;2427;50.934;6.776;2022-12-20T07:42:26;8.80;1.00
4826;DHT22;2427;50.934;6.776;2022-12-20T07:44:52;8.80;1.00
4826;DHT22;2427;50.934;6.776;2022-12-20T07:47:17;8.80;1.00
4826;DHT22;2427;50.934;6.776;2022-12-20T07:49:43;8.80;1.00
4826;DHT22;2427;50.934;6.776;2022-12-20T07:52:10;8.90;1.00
4826;DHT22;2427;50.934;6.776;2022-12-20T07:54:46;9.00;1.00
4826;DHT22;2427;50.934;6.776;2022-12-20T07:57:16;9.10;1.00
4826;DHT22;2427;50.934;6.776;2022-12-20T07:59:48;9.20;1.00
4826;DHT22;2427;50.934;6.776;2022-12-20T08:02:19;9.30;1.00
4826;DHT22;2427;50.934;6.776;2022-12-20T08:04:46;9.30;1.00
4826;DHT22;2427;50.934;6.776;2022-12-20T08:07:12;9.40;1.00
4826;DHT22;2427;50.934;6.776;2022-12-20T08:09:40;9.50;1.00
4826;DHT22;2427;50.934;6.776;2022-12-20T08:12:09;9.60;99.90
4826;DHT22;2427;50.934;6.776;2022-12-20T08:14:35;9.60;1.00
4826;DHT22;2427;50.934;6.776;2022-12-20T08:17:02;9.60;1.00
4826;DHT22;2427;50.934;6.776;2022-12-20T08:19:27;9.70;99.90
4826;DHT22;2427;50.934;6.776;2022-12-20T08:21:53;9.70;99.90
4826;DHT22;2427;50.934;6.776;2022-12-20T08:24:19;9.80;99.90
4826;DHT22;2427;50.934;6.776;2022-12-20T08:26:44;9.80;99.90
4826;DHT22;2427;50.934;6.776;2022-12-20T08:29:10;9.80;99.90
4826;DHT22;2427;50.934;6.776;2022-12-20T08:31:39;9.80;99.90
4826;DHT22;2427;50.934;6.776;2022-12-20T08:34:07;9.80;99.90
4826;DHT22;2427;50.934;6.776;2022-12-20T08:36:33;9.90;99.90
4826;DHT22;2427;50.934;6.776;2022-12-20T08:39:04;9.90;99.90
4826;DHT22;2427;50.934;6.776;2022-12-20T08:41:30;9.90;99.90
4826;DHT22;2427;50.934;6.776;2022-12-20T08:43:58;10.00;99.90
4826;DHT22;2427;50.934;6.776;2022-12-20T08:46:23;10.00;99.90
4826;DHT22;2427;50.934;6.776;2022-12-20T08:48:49;10.00;99.90
4826;DHT22;2427;50.934;6.776;2022-12-20T08:51:14;10.00;99.90
4826;DHT22;2427;50.934;6.776;2022-12-20T08:53:40;10.00;99.90
4826;DHT22;2427;50.934;6.776;2022-12-20T08:56:13;10.00;99.90
4826;DHT22;2427;50.934;6.776;2022-12-20T08:58:40;10.10;73.50
4826;DHT22;2427;50.934;6.776;2022-12-20T09:01:08;10.10;11.00
4826;DHT22;2427;50.934;6.776;2022-12-20T09:03:34;10.20;1.00
4826;DHT22;2427;50.934;6.776;2022-12-20T09:06:03;10.30;1.00
4826;DHT22;2427;50.934;6.776;2022-12-20T09:08:29;10.30;1.00
4826;DHT22;2427;50.934;6.776;2022-12-20T09:11:05;10.40;1.00
4826;DHT22;2427;50.934;6.776;2022-12-20T09:13:31;10.50;1.00
4826;DHT22;2427;50.934;6.776;2022-12-20T09:16:00;10.50;1.00
4826;DHT22;2427;50.934;6.776;2022-12-20T09:18:26;10.50;1.00
4826;DHT22;2427;50.934;6.776;2022-12-20T09:20:51;10.40;1.00
4826;DHT22;2427;50.934;6.776;2022-12-20T09:23:17;10.50;1.00
4826;DHT22;2427;50.934;6.776;2022-12-20T09:25:42;10.50;1.00
4826;DHT22;2427;50.934;6.776;2022-12-20T09:28:08;10.50;1.00
4826;DHT22;2427;50.934;6.776;2022-12-20T09:30:33;10.60;1.00
4826;DHT22;2427;50.934;6.776;2022-12-20T09:32:59;10.60;1.00
4826;DHT22;2427;50.934;6.776;2022-12-20T09:35:25;10.60;1.00
4826;DHT22;2427;50.934;6.776;2022-12-20T09:37:51;10.60;1.00
4826;DHT22;2427;50.934;6.776;2022-12-20T09:40:19;10.70;1.00
4826;DHT22;2427;50.934;6.776;2022-12-20T09:42:47;10.70;1.00
4826;DHT22;2427;50.934;6.776;2022-12-20T09:45:26;10.70;1.00
4826;DHT22;2427;50.934;6.776;2022-12-20T09:47:52;10.70;1.00
4826;DHT22;2427;50.934;6.776;2022-12-20T09:50:19;10.70;1.00
4826;DHT22;2427;50.934;6.776;2022-12-20T09:53:03;10.70;1.00
4826;DHT22;2427;50.934;6.776;2022-12-20T09:55:43;10.70;1.00
4826;DHT22;2427;50.934;6.776;2022-12-20T10:00:58;10.50;1.00
4826;DHT22;2427;50.934;6.776;2022-12-20T10:03:35;10.40;5.50
4826;DHT22;2427;50.934;6.776;2022-12-20T10:06:33;10.40;39.30
4826;DHT22;2427;50.934;6.776;2022-12-20T10:09:03;10.30;97.20
4826;DHT22;2427;50.934;6.776;2022-12-20T10:14:07;10.30;99.90
4826;DHT22;2427;50.934;6.776;2022-12-20T10:16:45;10.30;99.90
4826;DHT22;2427;50.934;6.776;2022-12-20T10:24:37;10.30;99.90
4826;DHT22;2427;50.934;6.776;2022-12-20T10:27:19;10.30;99.90
4826;DHT22;2427;50.934;6.776;2022-12-20T10:29:46;10.40;68.30
4826;DHT22;2427;50.934;6.776;2022-12-20T10:32:17;10.40;35.20
4826;DHT22;2427;50.934;6.776;2022-12-20T10:37:33;10.50;1.00
4826;DHT22;2427;50.934;6.776;2022-12-20T10:39:58;10.60;1.00
4826;DHT22;2427;50.934;6.776;2022-12-20T10:42:29;10.60;1.00
4826;DHT22;2427;50.934;6.776;2022-12-20T10:44:57;10.70;1.00
4826;DHT22;2427;50.934;6.776;2022-12-20T10:47:39;10.70;1.00
4826;DHT22;2427;50.934;6.776;2022-12-20T10:50:09;10.80;1.00
4826;DHT22;2427;50.934;6.776;2022-12-20T10:52:35;10.80;1.00
4826;DHT22;2427;50.934;6.776;2022-12-20T10:55:00;10.80;1.00
4826;DHT22;2427;50.934;6.776;2022-12-20T10:57:28;10.90;1.00
4826;DHT22;2427;50.934;6.776;2022-12-20T11:07:29;11.00;1.00
4826;DHT22;2427;50.934;6.776;2022-12-20T11:09:57;11.00;1.00
4826;DHT22;2427;50.934;6.776;2022-12-20T11:12:23;11.00;1.00
4826;DHT22;2427;50.934;6.776;2022-12-20T11:14:49;11.00;99.90
4826;DHT22;2427;50.934;6.776;2022-12-20T11:17:42;11.00;99.90
4826;DHT22;2427;50.934;6.776;2022-12-20T11:33:47;11.10;99.90
4826;DHT22;2427;50.934;6.776;2022-12-20T11:38:48;11.20;1.00
4826;DHT22;2427;50.934;6.776;2022-12-20T11:44:23;11.40;1.00
4826;DHT22;2427;50.934;6.776;2022-12-20T11:47:32;11.40;1.00
4826;DHT22;2427;50.934;6.776;2022-12-20T11:50:26;11.40;99.90
4826;DHT22;2427;50.934;6.776;2022-12-20T11:53:04;11.50;99.90
4826;DHT22;2427;50.934;6.776;2022-12-20T11:55:38;11.50;99.90
4826;DHT22;2427;50.934;6.776;2022-12-20T12:00:45;11.50;99.90
4826;DHT22;2427;50.934;6.776;2022-12-20T12:03:36;11.50;90.10
4826;DHT22;2427;50.934;6.776;2022-12-20T12:06:16;11.50;99.90
4826;DHT22;2427;50.934;6.776;2022-12-20T12:11:33;11.50;99.90
4826;DHT22;2427;50.934;6.776;2022-12-20T12:14:02;11.40;99.90
4826;DHT22;2427;50.934;6.776;2022-12-20T12:16:34;11.40;99.90
4826;DHT22;2427;50.934;6.776;2022-12-20T12:19:01;11.40;1.00
4826;DHT22;2427;50.934;6.776;2022-12-20T12:21:56;11.30;1.00
4826;DHT22;2427;50.934;6.776;2022-12-20T12:24:51;11.20;1.00
4826;DHT22;2427;50.934;6.776;2022-12-20T12:27:22;11.20;1.00
4826;DHT22;2427;50.934;6.776;2022-12-20T12:29:50;11.10;99.90
4826;DHT22;2427;50.934;6.776;2022-12-20T12:32:23;11.10;99.90
4826;DHT22;2427;50.934;6.776;2022-12-20T12:40:20;11.00;1.00
4826;DHT22;2427;50.934;6.776;2022-12-20T12:45:59;10.90;1.00
4826;DHT22;2427;50.934;6.776;2022-12-20T12:48:41;10.90;1.00
4826;DHT22;2427;50.934;6.776;2022-12-20T12:51:08;10.80;1.00
4826;DHT22;2427;50.934;6.776;2022-12-20T12:53:41;10.80;1.00
4826;DHT22;2427;50.934;6.776;2022-12-20T12:56:31;10.80;1.00
4826;DHT22;2427;50.934;6.776;2022-12-20T13:01:46;10.80;1.00
4826;DHT22;2427;50.934;6.776;2022-12-20T13:09:21;10.70;15.40
4826;DHT22;2427;50.934;6.776;2022-12-20T13:15:01;10.60;99.90
4826;DHT22;2427;50.934;6.776;2022-12-20T13:19:53;10.50;99.90
4826;DHT22;2427;50.934;6.776;2022-12-20T13:22:21;10.40;99.90
4826;DHT22;2427;50.934;6.776;2022-12-20T13:25:27;10.40;99.90
4826;DHT22;2427;50.934;6.776;2022-12-20T13:27:53;10.30;99.90
4826;DHT22;2427;50.934;6.776;2022-12-20T13:30:40;10.40;99.90
4826;DHT22;2427;50.934;6.776;2022-12-20T13:33:18;10.30;99.90
4826;DHT22;2427;50.934;6.776;2022-12-20T13:41:34;10.30;99.90
4826;DHT22;2427;50.934;6.776;2022-12-20T13:44:42;10.30;99.90
4826;DHT22;2427;50.934;6.776;2022-12-20T13:49:42;10.20;99.90
4826;DHT22;2427;50.934;6.776;2022-12-20T13:52:11;10.20;99.90
4826;DHT22;2427;50.934;6.776;2022-12-20T13:54:45;10.20;99.90
4826;DHT22;2427;50.934;6.776;2022-12-20T13:57:20;10.10;99.90
4826;DHT22;2427;50.934;6.776;2022-12-20T13:59:52;10.10;99.90
4826;DHT22;2427;50.934;6.776;2022-12-20T14:02:22;10.10;1.00
4826;DHT22;2427;50.934;6.776;2022-12-20T14:07:41;10.10;1.00
4826;DHT22;2427;50.934;6.776;2022-12-20T14:10:23;10.00;1.00
4826;DHT22;2427;50.934;6.776;2022-12-20T14:12:50;10.00;1.00
4826;DHT22;2427;50.934;6.776;2022-12-20T14:17:52;10.00;1.00
4826;DHT22;2427;50.934;6.776;2022-12-20T14:20:24;10.00;1.00
4826;DHT22;2427;50.934;6.776;2022-12-20T14:23:04;9.90;1.00
4826;DHT22;2427;50.934;6.776;2022-12-20T14:25:37;9.90;1.00
4826;DHT22;2427;50.934;6.776;2022-12-20T14:28:04;9.80;1.00
4826;DHT22;2427;50.934;6.776;2022-12-20T14:30:41;9.80;1.00
4826;DHT22;2427;50.934;6.776;2022-12-20T14:33:24;9.80;1.00
4826;DHT22;2427;50.934;6.776;2022-12-20T14:35:50;9.70;1.00
4826;DHT22;2427;50.934;6.776;2022-12-20T14:38:27;9.70;1.00
4826;DHT22;2427;50.934;6.776;2022-12-20T14:40:53;9.70;1.00
4826;DHT22;2427;50.934;6.776;2022-12-20T14:43:38;9.70;1.00
4826;DHT22;2427;50.934;6.776;2022-12-20T14:46:19;9.70;1.00
4826;DHT22;2427;50.934;6.776;2022-12-20T14:48:46;9.60;1.00
4826;DHT22;2427;50.934;6.776;2022-12-20T14:51:19;9.60;1.00
4826;DHT22;2427;50.934;6.776;2022-12-20T14:53:47;9.60;1.00
4826;DHT22;2427;50.934;6.776;2022-12-20T14:56:17;9.60;1.00
4826;DHT22;2427;50.934;6.776;2022-12-20T14:58:43;9.70;1.00
4826;DHT22;2427;50.934;6.776;2022-12-20T15:01:24;9.60;1.00
4826;DHT22;2427;50.934;6.776;2022-12-20T15:03:56;9.70;1.00
4826;DHT22;2427;50.934;6.776;2022-12-20T15:09:01;9.70;1.00
4826;DHT22;2427;50.934;6.776;2022-12-20T15:11:27;9.70;1.00
4826;DHT22;2427;50.934;6.776;2022-12-20T15:13:53;9.70;1.00
4826;DHT22;2427;50.934;6.776;2022-12-20T15:16:22;9.70;1.00
4826;DHT22;2427;50.934;6.776;2022-12-20T15:18:49;9.60;1.00
4826;DHT22;2427;50.934;6.776;2022-12-20T15:23:53;9.60;1.00
4826;DHT22;2427;50.934;6.776;2022-12-20T15:26:22;9.70;1.00
4826;DHT22;2427;50.934;6.776;2022-12-20T15:28:48;9.70;1.00
4826;DHT22;2427;50.934;6.776;2022-12-20T15:31:17;9.70;1.00
4826;DHT22;2427;50.934;6.776;2022-12-20T15:33:43;9.70;1.00
4826;DHT22;2427;50.934;6.776;2022-12-20T15:36:18;9.70;1.00
4826;DHT22;2427;50.934;6.776;2022-12-20T15:38:44;9.70;1.00
4826;DHT22;2427;50.934;6.776;2022-12-20T15:41:30;9.70;1.00
4826;DHT22;2427;50.934;6.776;2022-12-20T15:44:02;9.60;1.00
4826;DHT22;2427;50.934;6.776;2022-12-20T15:46:29;9.60;1.00
4826;DHT22;2427;50.934;6.776;2022-12-20T15:48:55;9.60;1.00
4826;DHT22;2427;50.934;6.776;2022-12-20T15:51:23;9.50;1.00
4826;DHT22;2427;50.934;6.776;2022-12-20T15:53:51;9.60;1.00
4826;DHT22;2427;50.934;6.776;2022-12-20T15:56:19;9.60;1.00
4826;DHT22;2427;50.934;6.776;2022-12-20T15:58:46;9.60;1.00
4826;DHT22;2427;50.934;6.776;2022-12-20T16:01:20;9.60;1.00
4826;DHT22;2427;50.934;6.776;2022-12-20T16:03:46;9.60;1.00
4826;DHT22;2427;50.934;6.776;2022-12-20T16:06:12;9.60;1.00
4826;DHT22;2427;50.934;6.776;2022-12-20T16:08:39;9.60;1.00
4826;DHT22;2427;50.934;6.776;2022-12-20T16:11:06;9.60;1.00
4826;DHT22;2427;50.934;6.776;2022-12-20T16:13:32;9.50;1.00
4826;DHT22;2427;50.934;6.776;2022-12-20T16:15:57;9.60;1.00
4826;DHT22;2427;50.934;6.776;2022-12-20T16:18:24;9.60;1.00
4826;DHT22;2427;50.934;6.776;2022-12-20T16:20:50;9.60;1.00
4826;DHT22;2427;50.934;6.776;2022-12-20T16:23:18;9.60;1.00
4826;DHT22;2427;50.934;6.776;2022-12-20T16:25:47;9.60;1.00
4826;DHT22;2427;50.934;6.776;2022-12-20T16:28:12;9.60;1.00
4826;DHT22;2427;50.934;6.776;2022-12-20T16:30:38;9.60;1.00
4826;DHT22;2427;50.934;6.776;2022-12-20T16:33:03;9.50;1.00
4826;DHT22;2427;50.934;6.776;2022-12-20T16:35:34;9.50;1.00
4826;DHT22;2427;50.934;6.776;2022-12-20T16:38:01;9.40;1.00
4826;DHT22;2427;50.934;6.776;2022-12-20T16:40:29;9.40;1.00
4826;DHT22;2427;50.934;6.776;2022-12-20T16:42:56;9.40;1.00
4826;DHT22;2427;50.934;6.776;2022-12-20T16:45:27;9.30;1.00
4826;DHT22;2427;50.934;6.776;2022-12-20T16:47:53;9.30;1.00
4826;DHT22;2427;50.934;6.776;2022-12-20T16:50:20;9.30;1.00
4826;DHT22;2427;50.934;6.776;2022-12-20T16:52:46;9.30;1.00
4826;DHT22;2427;50.934;6.776;2022-12-20T16:55:23;9.30;1.00
4826;DHT22;2427;50.934;6.776;2022-12-20T16:57:49;9.30;1.00
4826;DHT22;2427;50.934;6.776;2022-12-20T17:00:19;9.40;3.10
4826;DHT22;2427;50.934;6.776;2022-12-20T17:02:45;9.40;6.20
4826;DHT22;2427;50.934;6.776;2022-12-20T17:05:37;9.40;6.30
4826;DHT22;2427;50.934;6.776;2022-12-20T17:08:04;9.40;7.80
4826;DHT22;2427;50.934;6.776;2022-12-20T17:10:30;9.40;10.60
4826;DHT22;2427;50.934;6.776;2022-12-20T17:12:56;9.40;14.80
4826;DHT22;2427;50.934;6.776;2022-12-20T17:15:27;9.40;19.70
4826;DHT22;2427;50.934;6.776;2022-12-20T17:17:53;9.40;19.90
4826;DHT22;2427;50.934;6.776;2022-12-20T17:20:21;9.40;20.20
4826;DHT22;2427;50.934;6.776;2022-12-20T17:22:52;9.40;21.20
4826;DHT22;2427;50.934;6.776;2022-12-20T17:25:23;9.40;25.40
4826;DHT22;2427;50.934;6.776;2022-12-20T17:27:50;9.40;31.20
4826;DHT22;2427;50.934;6.776;2022-12-20T17:30:16;9.50;40.20
4826;DHT22;2427;50.934;6.776;2022-12-20T17:32:42;9.50;47.00
4826;DHT22;2427;50.934;6.776;2022-12-20T17:35:29;9.50;41.00
4826;DHT22;2427;50.934;6.776;2022-12-20T17:37:56;9.50;37.40
4826;DHT22;2427;50.934;6.776;2022-12-20T17:40:26;9.50;41.20
4826;DHT22;2427;50.934;6.776;2022-12-20T17:42:52;9.50;38.80
4826;DHT22;2427;50.934;6.776;2022-12-20T17:45:30;9.50;39.60
4826;DHT22;2427;50.934;6.776;2022-12-20T17:47:57;9.50;47.80
4826;DHT22;2427;50.934;6.776;2022-12-20T17:50:23;9.40;55.00
4826;DHT22;2427;50.934;6.776;2022-12-20T17:52:50;9.50;57.50
4826;DHT22;2427;50.934;6.776;2022-12-20T17:55:26;9.50;60.70
4826;DHT22;2427;50.934;6.776;2022-12-20T17:57:53;9.50;63.30
4826;DHT22;2427;50.934;6.776;2022-12-20T18:02:49;9.60;71.10
4826;DHT22;2427;50.934;6.776;2022-12-20T18:05:15;9.60;67.50
4826;DHT22;2427;50.934;6.776;2022-12-20T18:07:41;9.60;64.10
4826;DHT22;2427;50.934;6.776;2022-12-20T18:10:07;9.60;48.00
4826;DHT22;2427;50.934;6.776;2022-12-20T18:12:33;9.70;53.90
4826;DHT22;2427;50.934;6.776;2022-12-20T18:14:58;9.70;42.60
4826;DHT22;2427;50.934;6.776;2022-12-20T18:17:25;9.60;37.60
4826;DHT22;2427;50.934;6.776;2022-12-20T18:19:50;9.60;39.60
4826;DHT22;2427;50.934;6.776;2022-12-20T18:22:18;9.60;45.00
4826;DHT22;2427;50.934;6.776;2022-12-20T18:24:43;9.60;51.40
4826;DHT22;2427;50.934;6.776;2022-12-20T18:27:09;9.60;51.50
4826;DHT22;2427;50.934;6.776;2022-12-20T18:29:35;9.60;51.30